Time;durP1;ratioP1;P1;durP2;ratioP2;P2;SDS_P1;SDS_P2;PMS_P1;PMS_P2;Temp;Humidity;BMP_temperature;BMP_pressure;BME280_temperature;BME280_humidity;BME280_pressure;Samples;Min_cycle;Max_cycle;Signal;HPM_P1;HPM_P2
2023/04/08 00:01:52;;;;;;;18.30;16.40;;;;;;;7.12;47.83;94982.06;4988866;28;20262;-65
2023/04/08 00:04:18;;;;;;;18.17;16.40;;;;;;;7.18;47.93;94976.31;5005225;28;20242;-65
2023/04/08 00:06:43;;;;;;;18.23;16.43;;;;;;;7.07;48.01;94983.28;4989190;28;20235;-65
2023/04/08 00:09:09;;;;;;;17.87;16.07;;;;;;;7.09;47.98;94982.34;4989413;28;20218;-65
2023/04/08 00:11:34;;;;;;;19.23;17.23;;;;;;;7.03;48.96;94973.22;5003434;28;20213;-65
2023/04/08 00:14:03;;;;;;;18.10;16.27;;;;;;;6.85;49.77;94988.69;4985059;28;20231;-65
2023/04/08 00:16:28;;;;;;;18.80;16.90;;;;;;;7.00;49.24;94981.31;4988729;28;20233;-65
2023/04/08 00:18:53;;;;;;;19.43;17.33;;;;;;;7.09;48.92;94979.72;4989492;28;20227;-65
2023/04/08 00:21:20;;;;;;;19.97;17.93;;;;;;;7.10;49.34;94979.56;4989435;28;20241;-65
2023/04/08 00:23:46;;;;;;;20.13;18.00;;;;;;;7.12;48.79;94979.47;4989675;28;20223;-66
2023/04/08 00:26:11;;;;;;;21.90;18.73;;;;;;;7.08;49.19;94978.88;4989642;28;20215;-65
2023/04/08 00:28:37;;;;;;;19.57;17.17;;;;;;;7.10;49.23;94983.97;4987029;28;20227;-65
2023/04/08 00:31:03;;;;;;;20.43;18.40;;;;;;;7.04;49.70;94975.69;4989408;28;20219;-70
2023/04/08 00:33:28;;;;;;;20.63;18.53;;;;;;;7.01;49.49;94981.19;4986136;28;20611;-65
2023/04/08 00:35:54;;;;;;;19.20;17.20;;;;;;;7.10;49.45;94978.75;4987456;28;20679;-65
2023/04/08 00:38:19;;;;;;;20.87;18.77;;;;;;;7.04;49.35;94983.53;4989850;28;20191;-65
2023/04/08 00:40:45;;;;;;;22.47;18.70;;;;;;;7.14;49.02;94982.78;4993939;28;20227;-65
2023/04/08 00:43:10;;;;;;;20.50;18.33;;;;;;;7.10;49.56;94979.56;4989162;28;20250;-65
2023/04/08 00:45:37;;;;;;;22.33;19.03;;;;;;;7.11;49.69;94986.47;4999755;28;20282;-65
2023/04/08 00:48:04;;;;;;;22.47;20.17;;;;;;;7.08;49.43;94994.56;4983726;28;20255;-65
2023/04/08 00:50:29;;;;;;;23.20;20.73;;;;;;;7.09;49.76;94995.41;4988597;28;20191;-66
2023/04/08 00:52:55;;;;;;;22.40;20.13;;;;;;;7.07;49.75;94985.06;4988849;28;20227;-66
2023/04/08 00:55:20;;;;;;;19.97;17.87;;;;;;;7.07;49.45;94985.06;4989839;28;20227;-65
2023/04/08 00:57:47;;;;;;;20.13;18.03;;;;;;;6.96;49.57;94990.41;4987692;28;20243;-65
2023/04/08 01:00:13;;;;;;;18.50;16.70;;;;;;;7.00;50.11;94989.16;4989119;28;20285;-66
2023/04/08 01:02:45;;;;;;;17.83;15.67;;;;;;;7.05;49.66;94992.22;4989849;28;20183;-65
2023/04/08 01:05:23;;;;;;;15.83;14.10;;;;;;;6.99;49.97;94988.34;5004979;28;20278;-65
2023/04/08 01:07:49;;;;;;;15.73;14.13;;;;;;;7.01;49.71;94994.28;4986335;28;20237;-65
2023/04/08 01:10:21;;;;;;;15.17;13.70;;;;;;;6.98;49.26;95002.38;4983491;28;20302;-66
2023/04/08 01:12:54;;;;;;;15.40;13.20;;;;;;;6.83;49.58;95001.88;4988280;28;20675;-66
2023/04/08 01:15:20;;;;;;;15.17;13.67;;;;;;;6.89;49.81;95000.53;4989113;28;20246;-66
2023/04/08 01:17:49;;;;;;;14.27;12.87;;;;;;;6.89;50.08;95010.97;4988544;28;20191;-66
2023/04/08 01:20:15;;;;;;;14.80;13.37;;;;;;;6.83;49.96;94999.25;4987777;28;20203;-66
2023/04/08 01:22:59;;;;;;;14.73;13.33;;;;;;;6.94;49.65;94998.34;4988129;28;20215;-65
2023/04/08 01:25:36;;;;;;;15.83;14.27;;;;;;;6.87;49.72;95006.84;4992725;28;20223;-65
2023/04/08 01:28:14;;;;;;;14.87;13.47;;;;;;;6.90;49.83;94998.75;4991756;28;20226;-65
2023/04/08 01:30:41;;;;;;;17.20;15.40;;;;;;;6.86;49.57;95000.78;4990810;28;20266;-66
2023/04/08 01:33:11;;;;;;;15.70;14.20;;;;;;;6.88;49.91;95001.50;4989856;28;20234;-69
2023/04/08 01:35:36;;;;;;;16.90;15.30;;;;;;;6.86;49.48;94990.34;5004137;28;20259;-69
2023/04/08 01:38:05;;;;;;;15.10;13.60;;;;;;;6.91;49.32;94997.78;4992109;28;20749;-69
2023/04/08 01:40:34;;;;;;;16.17;14.67;;;;;;;6.88;48.92;94996.25;4992383;28;20299;-69
2023/04/08 01:43:00;;;;;;;15.70;14.30;;;;;;;6.84;48.85;94994.84;4991452;28;20259;-65
2023/04/08 01:45:27;;;;;;;16.37;14.70;;;;;;;6.82;49.05;94996.78;4990770;28;20215;-68
2023/04/08 01:47:55;;;;;;;17.40;15.13;;;;;;;6.79;49.14;94997.03;4992311;28;20196;-68
2023/04/08 01:50:21;;;;;;;15.77;14.27;;;;;;;6.83;49.41;95008.88;5006098;28;20187;-68
2023/04/08 01:52:48;;;;;;;15.27;13.97;;;;;;;6.80;49.61;94993.47;4975558;28;20246;-67
2023/04/08 01:55:15;;;;;;;15.10;13.60;;;;;;;6.79;49.03;94999.63;5002514;28;20251;-68
2023/04/08 01:57:44;;;;;;;15.70;14.13;;;;;;;6.88;49.01;95006.72;4990175;28;20231;-68
2023/04/08 02:00:12;;;;;;;15.43;13.97;;;;;;;6.81;49.40;95006.41;4986936;28;20223;-68
2023/04/08 02:02:40;;;;;;;15.53;13.93;;;;;;;6.80;49.43;95004.75;4991897;28;20187;-68
2023/04/08 02:05:06;;;;;;;15.50;14.00;;;;;;;6.83;49.06;95011.50;4991574;28;20274;-67
2023/04/08 02:07:31;;;;;;;15.70;14.10;;;;;;;6.81;49.62;95018.63;4991374;28;20219;-67
2023/04/08 02:09:57;;;;;;;15.83;14.23;;;;;;;6.83;49.71;95014.13;4991984;28;20257;-67
2023/04/08 02:12:24;;;;;;;16.63;15.13;;;;;;;6.88;49.42;95022.41;4991462;28;20231;-67
2023/04/08 02:14:49;;;;;;;17.00;15.23;;;;;;;6.89;49.52;95018.00;4990326;28;20195;-67
2023/04/08 02:17:49;;;;;;;16.83;15.07;;;;;;;6.79;49.65;95024.00;4991544;28;20191;-67
2023/04/08 02:20:37;;;;;;;17.10;15.40;;;;;;;6.81;49.84;95021.25;4914774;29;20289;-67
2023/04/08 02:23:05;;;;;;;15.90;14.43;;;;;;;6.81;49.78;95024.69;4915124;29;20304;-68
2023/04/08 02:25:34;;;;;;;16.60;14.93;;;;;;;6.82;50.02;95022.94;4915432;29;20233;-67
2023/04/08 02:28:03;;;;;;;17.20;15.27;;;;;;;6.86;49.33;95019.09;4900967;29;20229;-67
2023/04/08 02:30:31;;;;;;;16.20;14.70;;;;;;;6.88;49.55;95019.78;4898839;29;20226;-67
2023/04/08 02:32:57;;;;;;;17.03;15.20;;;;;;;6.72;49.99;95015.03;4914712;29;20212;-68
2023/04/08 02:35:23;;;;;;;17.77;15.40;;;;;;;6.85;49.43;95018.25;4930518;29;20197;-69
2023/04/08 02:37:49;;;;;;;15.93;14.33;;;;;;;6.87;49.63;95014.69;4918087;29;20234;-68
2023/04/08 02:40:27;;;;;;;14.40;12.97;;;;;;;6.89;49.15;95025.84;4916129;29;20229;-68
2023/04/08 02:42:54;;;;;;;12.77;11.57;;;;;;;6.90;48.51;95017.88;4915903;29;20232;-68
2023/04/08 02:45:20;;;;;;;12.63;11.40;;;;;;;6.89;48.30;95010.97;4918355;29;20397;-68
2023/04/08 02:47:46;;;;;;;13.57;12.00;;;;;;;6.95;48.61;95015.72;4916784;29;20200;-68
2023/04/08 02:50:11;;;;;;;13.60;12.30;;;;;;;6.97;48.49;95013.78;4899167;29;20205;-68
2023/04/08 02:52:37;;;;;;;14.27;12.73;;;;;;;6.92;48.67;95017.72;4916746;29;20229;-68
2023/04/08 02:55:05;;;;;;;13.00;11.57;;;;;;;6.83;48.71;95019.34;4915544;29;20236;-68
2023/04/08 02:57:31;;;;;;;12.83;11.63;;;;;;;6.78;48.86;95016.28;4955677;28;20321;-67
2023/04/08 02:59:56;;;;;;;12.40;11.30;;;;;;;6.79;48.72;95020.53;4988490;28;20208;-68
2023/04/08 03:02:21;;;;;;;11.93;10.93;;;;;;;6.90;48.69;95020.50;4991476;28;20274;-68
2023/04/08 03:04:47;;;;;;;13.83;12.43;;;;;;;6.93;48.35;95032.47;4990043;28;20314;-67
2023/04/08 03:07:12;;;;;;;13.17;11.93;;;;;;;6.88;48.66;95021.59;4990469;28;20242;-68
2023/04/08 03:09:38;;;;;;;12.40;11.20;;;;;;;6.86;48.40;95024.31;4989105;28;20322;-68
2023/04/08 03:12:03;;;;;;;12.90;11.60;;;;;;;6.88;48.78;95022.41;4989486;28;20235;-68
2023/04/08 03:14:29;;;;;;;13.07;11.93;;;;;;;6.84;48.92;95016.63;4988878;28;20310;-68
2023/04/08 03:16:54;;;;;;;12.53;11.10;;;;;;;6.86;48.60;95021.69;4991037;28;20223;-68
2023/04/08 03:19:20;;;;;;;12.73;11.40;;;;;;;6.84;48.42;95021.00;4989967;28;20228;-68
2023/04/08 03:21:45;;;;;;;13.40;11.97;;;;;;;6.86;48.39;95016.47;4989343;28;20224;-68
2023/04/08 03:24:11;;;;;;;12.60;11.30;;;;;;;6.91;48.16;95019.53;4990860;28;20246;-68
2023/04/08 03:26:36;;;;;;;13.33;11.87;;;;;;;6.70;49.16;95023.94;4991094;28;20191;-68
2023/04/08 03:29:01;;;;;;;12.20;11.07;;;;;;;6.79;48.72;95025.78;4990052;28;20223;-67
2023/04/08 03:31:27;;;;;;;13.00;11.80;;;;;;;6.79;48.60;95023.16;4989109;28;20219;-68
2023/04/08 03:33:52;;;;;;;11.73;10.63;;;;;;;6.81;49.15;95014.22;4990162;28;20243;-68
2023/04/08 03:36:18;;;;;;;12.17;11.07;;;;;;;6.76;49.18;95023.41;4990811;28;20222;-69
2023/04/08 03:38:43;;;;;;;11.43;10.37;;;;;;;6.84;48.83;95031.44;4989699;28;20210;-68
2023/04/08 03:41:09;;;;;;;12.43;11.13;;;;;;;6.77;49.14;95022.47;4991893;28;20179;-68
2023/04/08 03:43:35;;;;;;;13.27;11.03;;;;;;;6.74;49.22;95023.56;4990710;28;21181;-68
2023/04/08 03:46:00;;;;;;;12.13;11.03;;;;;;;6.69;49.20;95023.13;5005521;28;20223;-69
2023/04/08 03:48:26;;;;;;;12.07;10.87;;;;;;;6.76;49.22;95032.13;4985279;28;20223;-69
2023/04/08 03:50:52;;;;;;;12.50;10.90;;;;;;;6.79;49.28;95028.38;4989593;28;20217;-70
2023/04/08 03:53:17;;;;;;;11.70;10.50;;;;;;;6.73;49.23;95029.72;4990272;28;21596;-68
2023/04/08 03:55:43;;;;;;;12.83;11.53;;;;;;;6.75;49.28;95019.97;4990306;28;20226;-68
2023/04/08 03:58:08;;;;;;;11.17;10.07;;;;;;;6.74;49.68;95017.53;4989803;28;20289;-68
2023/04/08 04:00:34;;;;;;;13.47;12.17;;;;;;;6.66;49.67;95017.31;4989834;28;20251;-69
2023/04/08 04:03:00;;;;;;;15.67;14.03;;;;;;;6.65;50.17;95026.09;4988490;28;20254;-69
2023/04/08 04:05:25;;;;;;;16.40;14.67;;;;;;;6.67;50.38;95021.59;4991048;28;20191;-70
2023/04/08 04:07:51;;;;;;;19.13;17.13;;;;;;;6.73;50.80;95023.69;4990408;28;20230;-69
2023/04/08 04:10:16;;;;;;;21.07;17.47;;;;;;;6.73;50.67;95023.69;4989600;28;20224;-69
2023/04/08 04:12:43;;;;;;;21.50;19.30;;;;;;;6.72;51.21;95020.25;4990148;28;20234;-69
2023/04/08 04:15:09;;;;;;;20.60;17.80;;;;;;;6.71;51.09;95013.38;4989411;28;20223;-68
2023/04/08 04:17:34;;;;;;;22.33;19.00;;;;;;;6.75;51.07;95027.81;4990976;28;20191;-68
2023/04/08 04:20:03;;;;;;;21.43;19.23;;;;;;;6.75;51.27;95038.28;4989411;28;20475;-68
2023/04/08 04:22:28;;;;;;;21.73;19.20;;;;;;;6.67;51.26;95026.81;4987291;28;20291;-68
2023/04/08 04:24:54;;;;;;;21.83;19.57;;;;;;;6.72;50.92;95030.69;4994923;28;20227;-69
2023/04/08 04:27:19;;;;;;;21.57;19.27;;;;;;;6.72;50.58;95032.50;4989767;28;20238;-69
2023/04/08 04:29:45;;;;;;;20.83;18.80;;;;;;;6.74;50.21;95030.59;4989866;28;20191;-68
2023/04/08 04:32:10;;;;;;;20.10;17.97;;;;;;;6.73;50.16;95039.34;4990217;28;20245;-68
2023/04/08 04:34:35;;;;;;;21.30;18.77;;;;;;;6.73;50.17;95028.91;4987833;28;20211;-69
2023/04/08 04:37:01;;;;;;;24.50;19.07;;;;;;;6.79;50.01;95031.00;4989294;28;20235;-68
2023/04/08 04:39:27;;;;;;;21.10;19.10;;;;;;;6.69;51.00;95040.59;4989821;28;20349;-65
2023/04/08 04:41:52;;;;;;;22.13;19.50;;;;;;;6.67;50.41;95034.66;4989688;28;20217;-65
2023/04/08 04:44:18;;;;;;;22.63;20.43;;;;;;;6.71;50.06;95029.06;4990788;28;20600;-66
2023/04/08 04:46:44;;;;;;;24.20;19.90;;;;;;;6.68;49.96;95031.06;4989729;28;20268;-67
2023/04/08 04:49:09;;;;;;;21.03;18.80;;;;;;;6.77;50.22;95043.38;4989489;28;20250;-66
2023/04/08 04:51:35;;;;;;;20.80;18.60;;;;;;;6.76;49.94;95028.66;4989734;28;20230;-69
2023/04/08 04:54:00;;;;;;;19.13;17.27;;;;;;;6.74;49.68;95030.59;4989855;28;20492;-70
2023/04/08 04:56:26;;;;;;;19.20;17.20;;;;;;;6.80;50.01;95025.66;4991279;28;20186;-70
2023/04/08 04:58:52;;;;;;;18.77;16.87;;;;;;;6.86;49.60;95040.00;4993706;28;20233;-70
2023/04/08 05:01:17;;;;;;;18.53;16.53;;;;;;;6.85;50.31;95046.19;4993396;28;20754;-71
2023/04/08 05:03:43;;;;;;;19.80;17.53;;;;;;;6.86;50.13;95040.00;4993384;28;20242;-70
2023/04/08 05:06:08;;;;;;;18.30;16.33;;;;;;;6.88;50.00;95040.69;4993027;28;20223;-70
2023/04/08 05:08:34;;;;;;;18.37;16.57;;;;;;;6.92;49.26;95044.69;4993389;28;20190;-68
2023/04/08 05:11:01;;;;;;;18.23;15.37;;;;;;;6.90;49.14;95044.03;4993800;28;20223;-68
2023/04/08 05:13:31;;;;;;;15.63;13.73;;;;;;;6.82;49.36;95036.00;4998090;28;20603;-68
2023/04/08 05:15:56;;;;;;;16.13;14.37;;;;;;;6.92;49.26;95043.88;4993286;28;20291;-68
2023/04/08 05:18:21;;;;;;;16.10;14.47;;;;;;;6.99;49.05;95039.78;4994140;28;20310;-68
2023/04/08 05:20:47;;;;;;;16.17;14.57;;;;;;;7.06;49.02;95041.78;4991161;28;20196;-69
2023/04/08 05:23:12;;;;;;;17.53;14.83;;;;;;;7.11;49.09;95040.53;4993086;28;20189;-68
2023/04/08 05:25:38;;;;;;;16.00;14.50;;;;;;;7.11;48.98;95036.16;4989785;28;20219;-68
2023/04/08 05:28:03;;;;;;;15.80;14.13;;;;;;;7.21;48.62;95044.84;4992583;28;20218;-69
2023/04/08 05:30:29;;;;;;;16.17;13.53;;;;;;;7.18;48.66;95044.28;4993107;28;20211;-69
2023/04/08 05:32:55;;;;;;;17.67;14.50;;;;;;;7.30;48.59;95043.25;4993334;28;20210;-69
2023/04/08 05:35:20;;;;;;;18.53;15.50;;;;;;;7.29;48.35;95045.03;4993670;28;20180;-68
2023/04/08 05:37:46;;;;;;;17.27;15.57;;;;;;;7.37;48.29;95040.94;4976547;28;20219;-69
2023/04/08 05:40:11;;;;;;;16.50;13.20;;;;;;;7.46;48.29;95046.22;4993406;28;20329;-69
2023/04/08 05:42:37;;;;;;;15.83;12.77;;;;;;;7.55;48.15;95046.38;4990631;28;20303;-69
2023/04/08 05:45:03;;;;;;;14.63;13.13;;;;;;;7.53;48.03;95048.28;4989742;28;20286;-69
2023/04/08 05:47:28;;;;;;;17.87;14.07;;;;;;;7.54;48.13;95045.56;4992991;28;20691;-71
2023/04/08 05:49:53;;;;;;;14.73;13.13;;;;;;;7.65;48.06;95042.00;4991247;28;20222;-72
2023/04/08 05:52:19;;;;;;;15.67;13.90;;;;;;;7.66;47.59;95038.44;4992700;28;20293;-72
2023/04/08 05:54:45;;;;;;;15.57;14.07;;;;;;;7.62;47.99;95029.19;4991197;28;20319;-69
2023/04/08 05:57:10;;;;;;;15.20;13.40;;;;;;;7.70;47.87;95037.22;4993203;28;20223;-69
2023/04/08 05:59:36;;;;;;;18.97;14.53;;;;;;;7.65;48.02;95042.00;4988383;28;20188;-68
2023/04/08 06:02:01;;;;;;;16.57;14.77;;;;;;;7.73;47.89;95050.84;4990811;28;20281;-69
2023/04/08 06:04:27;;;;;;;18.83;15.17;;;;;;;7.81;47.77;95038.88;4989317;28;20231;-69
2023/04/08 06:06:52;;;;;;;16.23;14.63;;;;;;;7.80;47.96;95045.91;4985140;28;20224;-71
2023/04/08 06:09:18;;;;;;;18.17;13.73;;;;;;;7.75;48.22;95021.91;4990868;28;20223;-70
2023/04/08 06:11:43;;;;;;;19.67;14.47;;;;;;;7.74;47.97;95036.78;4975070;28;20199;-69
2023/04/08 06:14:08;;;;;;;17.37;14.20;;;;;;;7.53;48.60;95036.03;4991597;28;20283;-68
2023/04/08 06:16:34;;;;;;;17.53;15.20;;;;;;;7.28;49.24;95037.34;4991047;28;20219;-68
2023/04/08 06:18:59;;;;;;;15.83;13.73;;;;;;;7.35;49.45;95040.22;4990452;28;20315;-71
2023/04/08 06:21:25;;;;;;;17.27;14.30;;;;;;;7.66;48.91;95044.47;4987245;28;20229;-73
2023/04/08 06:23:50;;;;;;;16.33;14.37;;;;;;;7.82;48.88;95043.16;4991286;28;20190;-72
2023/04/08 06:26:16;;;;;;;14.47;12.77;;;;;;;7.89;48.75;95039.03;4991653;28;20187;-73
2023/04/08 06:28:42;;;;;;;13.43;12.00;;;;;;;8.07;48.28;95037.44;4991987;28;20223;-71
2023/04/08 06:31:07;;;;;;;14.00;12.60;;;;;;;7.99;48.91;95042.47;4990663;28;20231;-71
2023/04/08 06:33:33;;;;;;;17.37;13.97;;;;;;;8.01;49.07;95037.94;4991147;28;20235;-71
2023/04/08 06:36:06;;;;;;;14.80;13.30;;;;;;;8.08;48.61;95043.50;4992242;28;20198;-71
2023/04/08 06:38:31;;;;;;;15.43;12.80;;;;;;;8.02;49.37;95044.84;4991872;28;20234;-70
2023/04/08 06:41:07;;;;;;;16.57;12.90;;;;;;;8.27;48.82;95045.28;4990890;28;20231;-71
2023/04/08 06:43:33;;;;;;;14.90;12.77;;;;;;;8.43;48.87;95055.25;4990617;28;20295;-71
2023/04/08 06:45:58;;;;;;;16.63;14.13;;;;;;;8.56;48.12;95054.03;4990342;28;20225;-71
2023/04/08 06:48:29;;;;;;;14.30;12.90;;;;;;;8.58;48.37;95051.25;4988173;28;20215;-69
2023/04/08 06:50:59;;;;;;;16.20;13.87;;;;;;;8.57;48.42;95045.19;4989072;28;20200;-71
2023/04/08 06:53:28;;;;;;;15.33;13.83;;;;;;;8.46;48.67;95050.56;4991398;28;20218;-71
2023/04/08 06:55:53;;;;;;;13.40;12.20;;;;;;;8.54;48.57;95055.13;4990498;28;20219;-72
2023/04/08 06:58:19;;;;;;;14.77;12.93;;;;;;;8.51;48.53;95055.41;4990849;28;20282;-73
2023/04/08 07:00:44;;;;;;;14.37;12.87;;;;;;;8.57;48.17;95052.22;4990377;28;20219;-72
2023/04/08 07:03:12;;;;;;;15.10;13.07;;;;;;;8.62;48.75;95050.00;4990378;28;20222;-71
2023/04/08 07:05:40;;;;;;;19.73;13.80;;;;;;;8.55;49.01;95047.13;4990263;28;20200;-69
2023/04/08 07:08:06;;;;;;;16.63;13.53;;;;;;;8.64;49.00;95050.72;4992201;28;20231;-70
2023/04/08 07:10:33;;;;;;;15.33;13.77;;;;;;;8.80;48.51;95044.91;4992674;28;20232;-69
2023/04/08 07:12:59;;;;;;;15.27;13.67;;;;;;;8.93;48.16;95049.84;4990450;28;20234;-71
2023/04/08 07:15:24;;;;;;;15.67;14.10;;;;;;;8.96;48.23;95049.56;4993607;28;20219;-72
2023/04/08 07:17:50;;;;;;;16.00;14.27;;;;;;;9.09;48.00;95050.09;4990672;28;20206;-70
2023/04/08 07:20:15;;;;;;;15.33;13.77;;;;;;;9.07;47.91;95051.19;4989635;28;20184;-70
2023/04/08 07:22:41;;;;;;;16.07;13.73;;;;;;;9.19;47.89;95056.13;4987713;28;20227;-71
2023/04/08 07:25:07;;;;;;;17.40;14.67;;;;;;;9.28;47.86;95057.09;4990770;28;20231;-68
2023/04/08 07:27:33;;;;;;;18.47;14.60;;;;;;;9.45;47.61;95052.88;4989561;28;20297;-65
2023/04/08 07:29:58;;;;;;;15.73;14.10;;;;;;;9.43;47.97;95058.25;4986479;28;20189;-68
2023/04/08 07:32:24;;;;;;;15.63;13.93;;;;;;;9.52;47.82;95056.59;4990302;28;20220;-67
2023/04/08 07:34:49;;;;;;;14.07;12.70;;;;;;;9.57;47.11;95049.09;4989071;28;20220;-68
2023/04/08 07:37:16;;;;;;;14.50;13.10;;;;;;;9.52;47.16;95063.63;4988517;28;20223;-70
2023/04/08 07:39:42;;;;;;;15.57;14.07;;;;;;;9.61;47.12;95065.38;4989054;28;20322;-69
2023/04/08 07:42:07;;;;;;;16.40;13.97;;;;;;;9.74;47.34;95047.50;4990287;28;20318;-69
2023/04/08 07:44:32;;;;;;;16.27;14.03;;;;;;;9.90;46.93;95068.69;4990792;28;20188;-69
2023/04/08 07:46:58;;;;;;;16.13;14.57;;;;;;;10.06;46.69;95072.50;4989880;28;20223;-68
2023/04/08 07:49:23;;;;;;;14.77;13.30;;;;;;;10.06;46.50;95073.31;4989148;28;20228;-68
2023/04/08 07:51:49;;;;;;;14.00;12.53;;;;;;;10.07;46.17;95069.69;4957533;28;20247;-68
2023/04/08 07:54:16;;;;;;;15.30;13.70;;;;;;;10.10;46.20;95073.84;4988425;28;20250;-69
2023/04/08 07:56:43;;;;;;;15.13;13.63;;;;;;;10.21;45.79;95071.03;4989553;28;20186;-69
2023/04/08 07:59:09;;;;;;;14.70;12.43;;;;;;;10.29;45.66;95071.16;4989958;28;20702;-68
2023/04/08 08:01:35;;;;;;;13.90;12.47;;;;;;;10.49;45.41;95076.25;4987429;28;20286;-68
2023/04/08 08:04:01;;;;;;;15.00;13.50;;;;;;;10.31;46.18;95084.94;4988736;28;20289;-67
2023/04/08 08:06:26;;;;;;;14.20;12.70;;;;;;;10.43;45.76;95075.06;4987809;28;20243;-67
2023/04/08 08:08:52;;;;;;;14.50;13.10;;;;;;;10.15;46.54;95088.19;4984797;28;20192;-67
2023/04/08 08:11:17;;;;;;;13.83;12.53;;;;;;;10.15;47.12;95088.19;4990231;28;20192;-67
2023/04/08 08:13:43;;;;;;;13.87;12.50;;;;;;;10.35;46.54;95082.84;4989315;28;20220;-67
2023/04/08 08:16:10;;;;;;;15.73;12.67;;;;;;;10.63;45.75;95088.88;4989134;28;20307;-68
2023/04/08 08:18:36;;;;;;;14.53;13.03;;;;;;;10.58;45.97;95078.81;4988443;28;20239;-68
2023/04/08 08:21:02;;;;;;;16.60;14.90;;;;;;;10.64;46.10;95082.66;4989511;28;20293;-67
2023/04/08 08:23:28;;;;;;;15.27;13.73;;;;;;;10.80;45.25;95081.97;4973983;28;20256;-66
2023/04/08 08:26:01;;;;;;;14.40;13.00;;;;;;;10.69;45.33;95080.41;4989723;28;20216;-66
2023/04/08 08:28:27;;;;;;;14.90;13.37;;;;;;;10.67;45.58;95084.97;4987955;28;20211;-67
2023/04/08 08:30:52;;;;;;;15.53;13.90;;;;;;;10.64;46.00;95084.44;4987902;28;20220;-66
2023/04/08 08:33:18;;;;;;;15.03;13.53;;;;;;;10.83;45.24;95084.28;4988697;28;20259;-67
2023/04/08 08:35:43;;;;;;;15.93;13.90;;;;;;;10.77;45.82;95082.25;4988678;28;20223;-67
2023/04/08 08:38:09;;;;;;;16.17;14.47;;;;;;;10.70;45.56;95087.31;4980951;28;20546;-66
2023/04/08 08:40:34;;;;;;;15.90;13.97;;;;;;;10.78;45.86;95089.19;4987341;28;20408;-66
2023/04/08 08:43:00;;;;;;;18.17;14.97;;;;;;;10.96;45.05;95087.38;4985647;28;20243;-68
2023/04/08 08:45:25;;;;;;;16.40;14.67;;;;;;;10.78;45.98;95089.19;4988800;28;20658;-67
2023/04/08 08:47:51;;;;;;;16.37;14.80;;;;;;;10.79;45.77;95093.44;4988728;28;20187;-67
2023/04/08 08:50:18;;;;;;;15.83;14.17;;;;;;;10.90;45.47;95095.84;4990163;28;20203;-67
2023/04/08 08:52:50;;;;;;;16.23;14.60;;;;;;;10.85;45.93;95087.56;4989980;28;20274;-68
2023/04/08 08:55:20;;;;;;;18.17;14.67;;;;;;;10.93;45.69;95092.09;4984008;28;20234;-67
2023/04/08 08:57:49;;;;;;;17.17;15.47;;;;;;;11.00;45.32;95090.50;4984031;28;20242;-67
2023/04/08 09:00:15;;;;;;;17.30;15.70;;;;;;;10.92;44.91;95096.53;4985608;28;20247;-67
2023/04/08 09:02:41;;;;;;;16.87;15.07;;;;;;;10.79;45.77;95102.16;4987733;28;20660;-68
2023/04/08 09:05:06;;;;;;;17.97;15.17;;;;;;;10.95;45.52;95101.47;4989408;28;20239;-69
2023/04/08 09:07:36;;;;;;;18.40;16.50;;;;;;;10.93;46.21;95102.59;4986654;28;20224;-68
2023/04/08 09:10:02;;;;;;;17.60;15.80;;;;;;;11.10;45.22;95100.97;4981397;28;20230;-68
2023/04/08 09:12:28;;;;;;;21.60;16.63;;;;;;;10.95;45.65;95101.47;4989021;28;20302;-68
2023/04/08 09:15:03;;;;;;;17.37;15.53;;;;;;;11.23;45.08;95093.50;4988926;28;20254;-67
2023/04/08 09:17:40;;;;;;;18.20;16.27;;;;;;;11.53;44.66;95104.53;4988241;28;20214;-68
2023/04/08 09:20:08;;;;;;;17.90;16.00;;;;;;;11.64;44.52;95091.91;4988357;28;20294;-69
2023/04/08 09:22:53;;;;;;;18.60;16.07;;;;;;;11.70;44.22;95087.84;4985302;28;20219;-68
2023/04/08 09:25:31;;;;;;;18.00;15.83;;;;;;;11.69;44.38;95080.94;4989271;28;20254;-68
2023/04/08 09:27:56;;;;;;;15.37;13.13;;;;;;;11.81;43.86;95087.56;4982751;28;20230;-68
2023/04/08 09:30:23;;;;;;;13.53;12.23;;;;;;;11.81;42.50;95086.72;4981702;28;20216;-68
2023/04/08 09:32:56;;;;;;;16.20;13.13;;;;;;;11.75;43.00;95084.75;4968103;28;20260;-69
2023/04/08 09:35:23;;;;;;;14.63;13.23;;;;;;;11.77;43.37;95086.22;4983729;28;20265;-69
2023/04/08 09:37:49;;;;;;;14.30;12.83;;;;;;;11.40;43.45;95075.97;4986652;28;20236;-69
2023/04/08 09:40:15;;;;;;;15.37;13.87;;;;;;;11.39;45.37;95077.81;4988181;28;20252;-66
2023/04/08 09:42:45;;;;;;;16.10;14.43;;;;;;;11.51;44.72;95077.53;4988514;28;20307;-68
2023/04/08 09:45:12;;;;;;;15.93;14.23;;;;;;;11.95;43.79;95072.16;4989692;28;20273;-67
2023/04/08 09:47:56;;;;;;;17.80;15.23;;;;;;;12.32;43.45;95070.00;4990471;28;20188;-68
2023/04/08 09:50:27;;;;;;;15.95;14.45;;;;;;;12.74;42.26;95078.81;4992690;28;20291;-71
2023/04/08 09:52:59;;;;;;;18.30;16.40;;;;;;;12.98;41.50;95065.59;4993117;28;20235;-69
2023/04/08 09:55:30;;;;;;;14.23;12.73;;;;;;;13.01;41.32;95064.47;4992613;28;20246;-69
2023/04/08 09:58:02;;;;;;;14.57;13.10;;;;;;;13.13;40.02;95068.41;4990024;28;20215;-70
2023/04/08 10:00:32;;;;;;;16.00;14.43;;;;;;;13.36;40.16;95059.84;4992662;28;20215;-70
2023/04/08 10:03:24;;;;;;;15.60;14.00;;;;;;;13.45;39.50;95058.84;4992818;28;20298;-69
2023/04/08 10:05:52;;;;;;;15.37;13.83;;;;;;;13.52;39.31;95043.13;4937542;28;20200;-68
2023/04/08 10:08:18;;;;;;;14.90;13.45;;;;;;;13.42;39.59;95054.72;4955265;28;21804;-69
2023/04/08 10:10:45;;;;;;;15.75;14.30;;;;;;;13.47;39.14;95054.19;4938924;28;20344;-68
2023/04/08 10:13:11;;;;;;;16.35;14.68;;;;;;;13.17;39.84;95051.25;4940055;28;20228;-68
2023/04/08 10:15:38;;;;;;;14.50;12.88;;;;;;;13.31;39.33;95064.78;4938712;28;20236;-68
2023/04/08 10:18:04;;;;;;;15.82;14.23;;;;;;;13.30;39.53;95056.06;4936359;28;20216;-69
2023/04/08 10:20:35;;;;;;;14.63;13.13;;;;;;;13.25;39.58;95051.22;4939434;29;20197;-68
2023/04/08 10:23:03;;;;;;;15.13;13.68;;;;;;;13.24;39.75;95049.59;4942762;28;20220;-68
2023/04/08 10:25:31;;;;;;;15.65;14.05;;;;;;;13.09;39.88;95047.78;4939356;28;20229;-69
2023/04/08 10:27:57;;;;;;;14.82;13.15;;;;;;;13.05;40.14;95043.84;4935272;28;20240;-69
2023/04/08 10:30:26;;;;;;;15.02;12.68;;;;;;;12.79;40.57;95052.75;4936862;28;20320;-69
2023/04/08 10:32:55;;;;;;;15.77;13.47;;;;;;;12.71;40.72;95050.09;4935678;28;20229;-68
2023/04/08 10:35:29;;;;;;;13.77;12.43;;;;;;;12.50;40.92;95040.03;4933009;28;20193;-68
2023/04/08 10:37:54;;;;;;;15.60;13.52;;;;;;;12.10;42.15;95042.41;4953128;28;20224;-68
2023/04/08 10:40:20;;;;;;;15.25;13.75;;;;;;;12.32;42.49;95034.88;4934628;28;20229;-70
2023/04/08 10:42:45;;;;;;;15.95;13.80;;;;;;;12.41;42.19;95033.09;4963558;28;20226;-69
2023/04/08 10:45:16;;;;;;;15.88;14.27;;;;;;;12.74;42.13;95037.41;4990399;28;20247;-69
2023/04/08 10:47:42;;;;;;;17.13;13.70;;;;;;;12.99;40.84;95032.13;4992302;28;20230;-70
2023/04/08 10:50:18;;;;;;;16.42;12.50;;;;;;;13.23;39.33;95031.25;4989615;28;20247;-70
2023/04/08 10:52:48;;;;;;;13.80;12.50;;;;;;;13.44;38.79;95015.75;4987954;28;20223;-69
2023/04/08 10:55:15;;;;;;;14.05;12.65;;;;;;;13.43;39.02;95014.09;5004052;28;20216;-69
2023/04/08 10:57:41;;;;;;;14.10;12.65;;;;;;;13.73;38.29;95018.78;4991526;28;20223;-69
2023/04/08 11:00:16;;;;;;;14.45;13.05;;;;;;;14.03;37.96;95010.09;4992289;28;20234;-69
2023/04/08 11:02:42;;;;;;;14.65;13.25;;;;;;;14.10;37.86;95018.94;4989152;28;20187;-69
2023/04/08 11:05:09;;;;;;;14.02;12.60;;;;;;;14.04;38.15;95009.06;4990344;28;20239;-69
2023/04/08 11:07:44;;;;;;;14.10;12.65;;;;;;;13.92;38.30;95007.81;4990853;28;20218;-69
2023/04/08 11:10:10;;;;;;;14.45;13.05;;;;;;;13.75;37.87;95003.59;4983825;28;20353;-69
2023/04/08 11:12:37;;;;;;;12.98;11.77;;;;;;;13.74;38.04;95007.22;4990536;28;20227;-68
2023/04/08 11:15:03;;;;;;;14.32;12.98;;;;;;;13.74;38.25;95001.94;4990887;28;20271;-68
2023/04/08 11:17:30;;;;;;;12.88;11.10;;;;;;;13.78;38.09;95005.91;4990955;28;20215;-66
2023/04/08 11:20:01;;;;;;;12.75;10.90;;;;;;;13.85;37.18;95004.22;4991009;28;20230;-69
2023/04/08 11:22:27;;;;;;;11.18;10.15;;;;;;;13.81;37.03;95006.38;4990984;28;20227;-67